Terza, Mississippi
Current Conditions -  °F | °C
As of 9:15 AM on Wednesday 26 Nov 2014 (Local Time) from KUOX Reporting Station
Clear Clear  
Wind Chill: 33°   Ceiling: Unl
Heat Index: 37°   Visibility: 10mi
Dew Point: 27°   Wind: 6mph
Humidity: 65%   Direction: 160°SSE
Pressure: 30.18"   Gusts: NA
Location:  34.345°N, 89.8815°W
Report Text: KUOX 261515Z AUTO 16005KT 10SM CLR 03/M03 A3018 RMK AO2 PWINO PNO
Loading
Personal Weather Stations






























Interactive Weather Map New forecast layout! Learn more

10-Day Weather Forecast

Advertisements
Track Severe Weather on mobile